createdAt,value
2023-05-25T00:01:24.474Z,5.90
2023-05-25T00:03:53.049Z,6.00
2023-05-25T00:06:20.504Z,6.20
2023-05-25T00:08:48.649Z,5.80
2023-05-25T00:11:19.462Z,5.80
2023-05-25T00:13:46.760Z,5.20
2023-05-25T00:16:14.033Z,5.70
2023-05-25T00:18:41.285Z,5.70
2023-05-25T00:21:08.596Z,5.50
2023-05-25T00:23:35.912Z,5.50
2023-05-25T00:26:03.451Z,5.30
2023-05-25T00:28:30.872Z,5.70
2023-05-25T00:30:58.913Z,5.60
2023-05-25T00:33:26.255Z,5.70
2023-05-25T00:35:54.098Z,5.50
2023-05-25T00:38:21.854Z,6.00
2023-05-25T00:40:49.336Z,5.60
2023-05-25T00:43:16.733Z,5.60
2023-05-25T00:45:44.174Z,5.40
2023-05-25T00:48:11.551Z,5.40
2023-05-25T00:50:42.615Z,5.30
2023-05-25T00:53:10.607Z,5.40
2023-05-25T00:56:02.456Z,5.90
2023-05-25T00:58:31.424Z,5.20
2023-05-25T01:00:58.784Z,5.50
2023-05-25T01:03:28.427Z,5.60
2023-05-25T01:05:56.109Z,5.80
2023-05-25T01:08:23.473Z,5.90
2023-05-25T01:10:52.823Z,5.90
2023-05-25T01:13:21.045Z,6.20
2023-05-25T01:15:48.452Z,6.70
2023-05-25T01:18:15.924Z,6.20
2023-05-25T01:21:13.290Z,6.20
2023-05-25T01:23:44.034Z,7.10
2023-05-25T01:26:13.605Z,6.60
2023-05-25T01:28:42.975Z,6.60
2023-05-25T01:31:10.568Z,6.90
2023-05-25T01:33:37.871Z,6.60
2023-05-25T01:36:05.421Z,7.10
2023-05-25T01:38:32.706Z,6.50
2023-05-25T01:42:30.552Z,6.60
2023-05-25T01:44:58.949Z,7.30
2023-05-25T01:47:48.293Z,6.60
2023-05-25T01:50:20.603Z,6.80
2023-05-25T01:52:58.332Z,6.40
2023-05-25T01:55:26.975Z,6.50
2023-05-25T01:57:58.093Z,6.10
2023-05-25T02:00:26.503Z,6.40
2023-05-25T02:02:53.934Z,7.10
2023-05-25T02:05:21.495Z,7.00
2023-05-25T02:07:48.794Z,6.80
2023-05-25T02:10:16.125Z,6.90
2023-05-25T02:12:43.370Z,7.00
2023-05-25T02:15:11.570Z,6.80
2023-05-25T02:17:38.812Z,6.80
2023-05-25T02:20:07.016Z,6.40
2023-05-25T02:22:34.426Z,6.50
2023-05-25T02:25:01.660Z,6.80
2023-05-25T02:27:30.144Z,6.60
2023-05-25T02:29:57.373Z,6.90
2023-05-25T02:32:25.844Z,7.10
2023-05-25T02:34:53.110Z,6.70
2023-05-25T02:37:21.164Z,7.00
2023-05-25T02:39:48.385Z,7.20
2023-05-25T02:42:15.665Z,7.30
2023-05-25T02:44:48.212Z,7.00
2023-05-25T02:47:16.130Z,6.50
2023-05-25T02:49:44.235Z,6.80
2023-05-25T02:52:11.507Z,6.70
2023-05-25T02:54:39.268Z,6.80
2023-05-25T02:57:08.408Z,6.60
2023-05-25T02:59:35.755Z,6.50
2023-05-25T03:02:03.706Z,6.70
2023-05-25T03:04:34.398Z,6.90
2023-05-25T03:07:02.220Z,6.50
2023-05-25T03:09:29.887Z,6.70
2023-05-25T03:11:57.685Z,6.80
2023-05-25T03:14:25.137Z,6.40
2023-05-25T03:16:59.876Z,6.50
2023-05-25T03:19:27.408Z,6.20
2023-05-25T03:21:54.753Z,6.40
2023-05-25T03:24:22.134Z,6.40
2023-05-25T03:26:49.399Z,6.00
2023-05-25T03:29:16.964Z,6.30
2023-05-25T03:31:44.361Z,5.80
2023-05-25T03:34:12.177Z,5.70
2023-05-25T03:36:39.673Z,6.10
2023-05-25T03:39:07.299Z,5.70
2023-05-25T03:41:34.575Z,5.80
2023-05-25T03:44:01.961Z,6.20
2023-05-25T03:46:29.481Z,5.90
2023-05-25T03:48:57.609Z,6.00
2023-05-25T03:51:24.929Z,6.50
2023-05-25T03:53:52.307Z,6.50
2023-05-25T03:56:19.598Z,6.70
2023-05-25T03:58:46.977Z,6.90
2023-05-25T04:01:14.777Z,6.90
2023-05-25T04:03:42.153Z,6.90
2023-05-25T04:06:09.840Z,7.30
2023-05-25T04:08:37.114Z,7.20
2023-05-25T04:11:05.566Z,6.50
2023-05-25T04:13:35.913Z,6.60
2023-05-25T04:16:03.583Z,6.90
2023-05-25T04:18:33.871Z,6.80
2023-05-25T04:21:01.363Z,6.80
2023-05-25T04:23:28.924Z,6.50
2023-05-25T04:25:56.680Z,6.60
2023-05-25T04:28:24.069Z,6.60
2023-05-25T04:30:57.215Z,7.00
2023-05-25T04:33:48.174Z,6.70
2023-05-25T04:36:38.682Z,7.20
2023-05-25T04:39:07.588Z,6.50
2023-05-25T04:41:39.347Z,6.50
2023-05-25T04:44:10.673Z,6.20
2023-05-25T04:46:48.517Z,5.90
2023-05-25T04:49:21.493Z,5.90
2023-05-25T04:51:48.961Z,5.60
2023-05-25T04:54:16.598Z,5.40
2023-05-25T04:56:44.135Z,5.10
2023-05-25T04:59:11.597Z,5.40
2023-05-25T05:01:42.159Z,5.00
2023-05-25T05:04:12.173Z,4.90
2023-05-25T05:06:39.621Z,4.50
2023-05-25T05:09:07.892Z,4.40
2023-05-25T05:11:35.127Z,4.30
2023-05-25T05:14:04.652Z,3.90
2023-05-25T05:16:35.293Z,3.80
2023-05-25T05:19:02.958Z,3.50
2023-05-25T05:21:30.480Z,3.40
2023-05-25T05:23:57.856Z,3.40
2023-05-25T05:26:25.221Z,4.50
2023-05-25T05:28:53.059Z,4.40
2023-05-25T05:31:21.500Z,3.30
2023-05-25T05:33:48.816Z,3.10
2023-05-25T05:36:16.980Z,3.00
2023-05-25T05:38:46.958Z,2.90
2023-05-25T05:41:14.558Z,2.90
2023-05-25T05:43:43.876Z,2.90
2023-05-25T05:46:11.218Z,4.50
2023-05-25T05:48:40.357Z,3.00
2023-05-25T05:51:07.791Z,2.90
2023-05-25T05:53:37.856Z,2.80
2023-05-25T05:56:05.931Z,2.30
2023-05-25T05:58:33.869Z,2.60
2023-05-25T06:01:02.023Z,2.70
2023-05-25T06:03:29.356Z,2.50
2023-05-25T06:05:56.624Z,2.30
2023-05-25T06:08:24.235Z,2.20
2023-05-25T06:10:51.729Z,2.00
2023-05-25T06:13:19.006Z,2.10
2023-05-25T06:15:46.593Z,2.20
2023-05-25T06:18:17.736Z,2.10
2023-05-25T06:20:45.102Z,2.40
2023-05-25T06:23:14.098Z,2.10
2023-05-25T06:25:41.691Z,1.90
2023-05-25T06:28:09.166Z,2.10
2023-05-25T06:30:36.423Z,2.00
2023-05-25T06:33:04.086Z,2.00
2023-05-25T06:35:31.446Z,1.90
2023-05-25T06:37:58.709Z,2.00
2023-05-25T06:40:26.073Z,2.40
2023-05-25T06:42:53.392Z,2.30
2023-05-25T06:45:38.004Z,2.00
2023-05-25T06:48:05.724Z,2.10
2023-05-25T06:50:33.261Z,2.20
2023-05-25T06:53:00.737Z,2.20
2023-05-25T06:55:28.102Z,2.20
2023-05-25T06:57:56.174Z,2.20
2023-05-25T07:00:23.528Z,2.20
2023-05-25T07:02:50.989Z,2.60
2023-05-25T07:05:18.385Z,2.40
2023-05-25T07:07:45.758Z,2.60
2023-05-25T07:10:13.036Z,2.40
2023-05-25T07:12:40.312Z,2.50
2023-05-25T07:15:08.237Z,2.50
2023-05-25T07:17:36.723Z,3.10
2023-05-25T07:20:05.879Z,2.90
2023-05-25T07:22:33.180Z,3.20
2023-05-25T07:25:00.458Z,2.90
2023-05-25T07:27:27.912Z,2.70
2023-05-25T07:29:55.165Z,2.90
2023-05-25T07:32:22.484Z,2.90
2023-05-25T07:34:50.185Z,2.80
2023-05-25T07:37:17.427Z,3.00
2023-05-25T07:39:44.736Z,2.70
2023-05-25T07:42:12.022Z,2.70
2023-05-25T07:44:39.462Z,2.90
2023-05-25T07:47:07.303Z,2.80
2023-05-25T07:49:34.982Z,2.90
2023-05-25T07:52:04.563Z,2.90
2023-05-25T07:54:32.392Z,2.80
2023-05-25T07:56:59.675Z,2.60
2023-05-25T07:59:26.911Z,2.50
2023-05-25T08:01:54.262Z,2.40
2023-05-25T08:04:21.587Z,2.70
2023-05-25T08:06:48.894Z,2.60
2023-05-25T08:09:16.145Z,2.50
2023-05-25T08:11:45.520Z,2.50
2023-05-25T08:14:13.056Z,2.60
2023-05-25T08:16:40.661Z,2.20
2023-05-25T08:19:07.878Z,2.40
2023-05-25T08:21:35.256Z,2.50
2023-05-25T08:24:04.253Z,2.60
2023-05-25T08:26:45.345Z,3.10
2023-05-25T08:29:19.405Z,2.60
2023-05-25T08:31:49.647Z,2.60
2023-05-25T08:34:18.216Z,2.60
2023-05-25T08:36:46.122Z,2.60
2023-05-25T08:39:13.518Z,2.70
2023-05-25T08:41:44.481Z,2.70
2023-05-25T08:44:11.769Z,2.60
2023-05-25T08:46:39.036Z,2.50
2023-05-25T08:49:13.657Z,2.30
2023-05-25T08:51:54.199Z,2.90
2023-05-25T08:54:39.547Z,2.60
2023-05-25T08:57:20.883Z,2.60
2023-05-25T08:59:52.390Z,2.40
2023-05-25T09:02:52.322Z,2.50
2023-05-25T09:05:19.830Z,2.40
2023-05-25T09:07:47.195Z,2.70
2023-05-25T09:10:14.520Z,2.40
2023-05-25T09:12:41.834Z,2.60
2023-05-25T09:15:12.510Z,2.50
2023-05-25T09:17:41.402Z,2.70
2023-05-25T09:20:10.882Z,2.80
2023-05-25T09:22:38.221Z,2.40
2023-05-25T09:25:06.806Z,2.60
2023-05-25T09:27:35.503Z,2.40
2023-05-25T09:30:03.485Z,2.30
2023-05-25T09:32:30.938Z,2.30
2023-05-25T09:35:14.581Z,2.20
2023-05-25T09:37:42.247Z,2.30
2023-05-25T09:40:10.950Z,2.30
2023-05-25T09:42:38.424Z,2.30
2023-05-25T09:45:06.393Z,2.50
2023-05-25T09:47:36.070Z,2.30
2023-05-25T09:50:03.901Z,2.30
2023-05-25T09:52:31.509Z,2.20
2023-05-25T09:54:58.741Z,2.40
2023-05-25T09:57:26.132Z,2.20
2023-05-25T09:59:53.537Z,2.10
2023-05-25T10:02:20.779Z,1.90
2023-05-25T10:04:48.648Z,2.10
2023-05-25T10:07:16.274Z,2.00
2023-05-25T10:09:43.532Z,2.10
2023-05-25T10:12:10.733Z,2.10
2023-05-25T10:14:38.346Z,2.20
2023-05-25T10:17:09.120Z,2.10
2023-05-25T10:19:41.408Z,2.00
2023-05-25T10:24:56.477Z,1.80
2023-05-25T10:30:12.424Z,2.10
2023-05-25T10:32:39.858Z,2.10
2023-05-25T10:35:07.707Z,2.30
2023-05-25T10:37:35.817Z,2.50
2023-05-25T10:40:03.912Z,2.20
2023-05-25T10:42:31.245Z,2.20
2023-05-25T10:44:58.783Z,2.30
2023-05-25T10:47:26.135Z,2.40
2023-05-25T10:49:54.748Z,2.50
2023-05-25T10:52:22.095Z,2.20
2023-05-25T10:54:49.356Z,2.20
2023-05-25T10:57:23.752Z,2.20
2023-05-25T10:59:52.030Z,2.20
2023-05-25T11:02:25.174Z,2.20
2023-05-25T11:05:12.382Z,2.30
2023-05-25T11:08:01.361Z,2.10
2023-05-25T11:10:49.463Z,2.60
2023-05-25T11:13:23.804Z,2.20
2023-05-25T11:16:18.820Z,2.10
2023-05-25T11:19:01.956Z,2.30
2023-05-25T11:21:30.486Z,2.00
2023-05-25T11:24:04.463Z,2.10
2023-05-25T11:26:35.071Z,2.50
2023-05-25T11:29:12.187Z,3.70
2023-05-25T11:31:43.431Z,2.90
2023-05-25T11:34:11.960Z,2.80
2023-05-25T11:36:39.664Z,2.70
2023-05-25T11:39:14.201Z,2.50
2023-05-25T11:41:48.360Z,2.60
2023-05-25T11:44:15.603Z,2.50
2023-05-25T11:46:43.937Z,2.60
2023-05-25T11:49:11.218Z,2.40
2023-05-25T11:51:38.761Z,2.30
2023-05-25T11:54:06.283Z,2.30
2023-05-25T11:56:35.939Z,2.30
2023-05-25T11:59:03.504Z,2.70
2023-05-25T12:01:34.370Z,2.30
2023-05-25T12:04:05.035Z,2.30
2023-05-25T12:06:36.998Z,2.90
2023-05-25T12:09:10.190Z,2.50
2023-05-25T12:11:45.296Z,3.10
2023-05-25T12:14:12.563Z,2.40
2023-05-25T12:16:41.041Z,2.40
2023-05-25T12:19:08.604Z,2.30
2023-05-25T12:21:39.044Z,2.30
2023-05-25T12:24:07.007Z,2.10
2023-05-25T12:26:34.448Z,2.10
2023-05-25T12:29:03.618Z,2.30
2023-05-25T12:31:35.737Z,2.30
2023-05-25T12:34:06.040Z,2.40
2023-05-25T12:36:40.483Z,2.30
2023-05-25T12:39:08.049Z,2.30
2023-05-25T12:41:53.353Z,2.60
2023-05-25T12:44:26.896Z,2.40
2023-05-25T12:46:55.604Z,2.40
2023-05-25T12:49:27.661Z,2.40
2023-05-25T12:51:55.265Z,2.30
2023-05-25T12:54:44.808Z,2.80
2023-05-25T12:57:16.147Z,2.40
2023-05-25T12:59:44.992Z,2.70
2023-05-25T13:02:13.004Z,2.40
2023-05-25T13:04:41.171Z,2.30
2023-05-25T13:07:08.728Z,2.50
2023-05-25T13:09:36.568Z,2.50
2023-05-25T13:12:04.516Z,2.50
2023-05-25T13:14:31.744Z,2.40
2023-05-25T13:16:59.121Z,2.40
2023-05-25T13:19:26.345Z,2.50
2023-05-25T13:21:55.823Z,2.50
2023-05-25T13:24:23.244Z,2.60
2023-05-25T13:26:51.128Z,2.50
2023-05-25T13:29:18.594Z,2.60
2023-05-25T13:31:46.750Z,2.50
2023-05-25T13:34:14.190Z,2.60
2023-05-25T13:36:41.498Z,2.50
2023-05-25T13:39:13.249Z,2.50
2023-05-25T13:41:41.171Z,2.70
2023-05-25T13:44:08.566Z,2.70
2023-05-25T13:46:37.672Z,2.60
2023-05-25T13:49:05.175Z,2.40
2023-05-25T13:51:35.457Z,2.60
2023-05-25T13:54:03.182Z,2.70
2023-05-25T13:56:30.452Z,2.70
2023-05-25T14:00:34.311Z,2.40
2023-05-25T14:03:01.949Z,2.70
2023-05-25T14:05:30.319Z,2.20
2023-05-25T14:08:00.786Z,2.50
2023-05-25T14:10:28.346Z,2.00
2023-05-25T14:12:55.670Z,2.10
2023-05-25T14:15:23.046Z,2.20
2023-05-25T14:17:50.558Z,2.40
2023-05-25T14:20:25.329Z,2.40
2023-05-25T14:22:52.858Z,2.30
2023-05-25T14:25:20.153Z,3.30
2023-05-25T14:27:47.341Z,2.20
2023-05-25T14:30:14.885Z,3.30
2023-05-25T14:32:42.843Z,2.30
2023-05-25T14:35:10.837Z,2.50
2023-05-25T14:37:38.059Z,2.20
2023-05-25T14:40:06.142Z,2.20
2023-05-25T14:42:33.369Z,2.30
2023-05-25T14:45:00.881Z,2.30
2023-05-25T14:47:28.237Z,2.00
2023-05-25T14:49:55.757Z,2.30
2023-05-25T14:52:23.034Z,2.40
2023-05-25T14:54:50.416Z,2.30
2023-05-25T14:57:17.766Z,2.60
2023-05-25T14:59:45.048Z,2.90
2023-05-25T15:02:12.374Z,2.50
2023-05-25T15:04:39.648Z,2.40
2023-05-25T15:07:06.984Z,2.30
2023-05-25T15:09:34.265Z,2.70
2023-05-25T15:12:02.071Z,2.50
2023-05-25T15:14:29.358Z,2.70
2023-05-25T15:16:57.166Z,2.50
2023-05-25T15:19:24.356Z,2.60
2023-05-25T15:21:51.667Z,2.40
2023-05-25T15:24:18.918Z,2.40
2023-05-25T15:26:46.540Z,2.40
2023-05-25T15:29:13.837Z,2.50
2023-05-25T15:31:41.432Z,2.20
2023-05-25T15:34:11.222Z,2.30
2023-05-25T15:36:38.454Z,2.50
2023-05-25T15:39:08.905Z,2.80
2023-05-25T15:41:36.381Z,2.20
2023-05-25T15:44:08.120Z,2.40
2023-05-25T15:46:36.174Z,2.10
2023-05-25T15:49:10.699Z,2.40
2023-05-25T15:51:39.829Z,2.40
2023-05-25T15:54:08.050Z,2.30
2023-05-25T15:56:35.958Z,2.40
2023-05-25T15:59:03.685Z,2.80
2023-05-25T16:01:34.240Z,2.50
2023-05-25T16:04:01.671Z,2.40
2023-05-25T16:06:29.284Z,2.30
2023-05-25T16:08:58.641Z,2.40
2023-05-25T16:11:28.013Z,2.30
2023-05-25T16:13:55.448Z,2.20
2023-05-25T16:16:24.316Z,2.50
2023-05-25T16:18:51.820Z,2.20
2023-05-25T16:21:19.057Z,2.30
2023-05-25T16:23:46.313Z,2.20
2023-05-25T16:26:13.512Z,2.30
2023-05-25T16:28:40.936Z,2.10
2023-05-25T16:31:08.223Z,2.50
2023-05-25T16:33:35.530Z,2.40
2023-05-25T16:36:02.901Z,2.60
2023-05-25T16:38:30.455Z,2.80
2023-05-25T16:40:57.729Z,4.60
2023-05-25T16:43:25.222Z,3.20
2023-05-25T16:45:52.661Z,2.60
2023-05-25T16:48:22.434Z,2.60
2023-05-25T16:50:50.501Z,2.50
2023-05-25T16:53:17.745Z,2.20
2023-05-25T16:55:45.137Z,2.40
2023-05-25T16:58:12.504Z,2.50
2023-05-25T17:00:40.185Z,2.50
2023-05-25T17:03:07.501Z,2.10
2023-05-25T17:05:34.799Z,2.50
2023-05-25T17:08:02.175Z,2.40
2023-05-25T17:10:29.367Z,3.40
2023-05-25T17:12:56.725Z,7.80
2023-05-25T17:15:24.044Z,9.30
2023-05-25T17:17:51.472Z,6.20
2023-05-25T17:20:18.732Z,8.20
2023-05-25T17:22:46.640Z,7.00
2023-05-25T17:25:13.866Z,6.50
2023-05-25T17:27:41.134Z,8.90
2023-05-25T17:30:09.255Z,5.60
2023-05-25T17:32:36.595Z,4.20
2023-05-25T17:35:04.216Z,3.60
2023-05-25T17:37:32.293Z,3.20
2023-05-25T17:39:59.535Z,4.80
2023-05-25T17:42:26.812Z,5.10
2023-05-25T17:44:54.049Z,4.70
2023-05-25T17:47:21.303Z,4.70
2023-05-25T17:49:48.526Z,3.90
2023-05-25T17:52:15.879Z,3.10
2023-05-25T17:54:43.086Z,2.90
2023-05-25T17:57:10.307Z,2.70
2023-05-25T17:59:37.598Z,2.80
2023-05-25T18:02:05.151Z,2.70
2023-05-25T18:04:32.404Z,3.00
2023-05-25T18:06:59.664Z,2.50
2023-05-25T18:09:26.881Z,2.80
2023-05-25T18:11:55.360Z,2.60
2023-05-25T18:14:22.693Z,3.10
2023-05-25T18:16:50.058Z,3.80
2023-05-25T18:19:20.187Z,3.30
2023-05-25T18:21:47.552Z,3.60
2023-05-25T18:24:14.783Z,3.40
2023-05-25T18:26:42.317Z,3.60
2023-05-25T18:29:09.741Z,3.30
2023-05-25T18:31:37.081Z,3.10
2023-05-25T18:34:06.776Z,3.20
2023-05-25T18:36:34.091Z,3.10
2023-05-25T18:39:01.290Z,3.20
2023-05-25T18:41:28.559Z,3.20
2023-05-25T18:43:55.863Z,3.00
2023-05-25T18:46:24.486Z,2.90
2023-05-25T18:48:51.857Z,2.90
2023-05-25T18:51:22.999Z,2.90
2023-05-25T18:53:50.245Z,3.00
2023-05-25T18:56:17.445Z,2.80
2023-05-25T18:58:44.972Z,3.00
2023-05-25T19:01:12.234Z,2.90
2023-05-25T19:03:39.522Z,2.90
2023-05-25T19:06:07.150Z,3.20
2023-05-25T19:08:34.372Z,3.20
2023-05-25T19:11:01.589Z,2.90
2023-05-25T19:13:29.335Z,2.80
2023-05-25T19:15:56.794Z,3.30
2023-05-25T19:18:24.083Z,3.10
2023-05-25T19:20:51.472Z,3.10
2023-05-25T19:23:19.494Z,3.30
2023-05-25T19:25:47.072Z,3.10
2023-05-25T19:28:14.652Z,3.80
2023-05-25T19:30:41.915Z,3.70
2023-05-25T19:33:09.324Z,3.50
2023-05-25T19:35:37.207Z,3.60
2023-05-25T19:38:04.557Z,4.00
2023-05-25T19:40:32.203Z,4.40
2023-05-25T19:42:59.412Z,4.50
2023-05-25T19:45:26.697Z,4.60
2023-05-25T19:47:54.533Z,4.20
2023-05-25T19:50:21.835Z,4.30
2023-05-25T19:52:49.056Z,4.10
2023-05-25T19:55:16.243Z,4.40
2023-05-25T19:57:43.505Z,4.40
2023-05-25T20:00:24.944Z,4.30
2023-05-25T20:02:53.982Z,4.90
2023-05-25T20:05:21.338Z,5.10
2023-05-25T20:07:50.765Z,4.90
2023-05-25T20:10:18.133Z,4.80
2023-05-25T20:12:45.441Z,4.80
2023-05-25T20:15:12.764Z,4.50
2023-05-25T20:17:40.128Z,4.50
2023-05-25T20:20:07.939Z,4.40
2023-05-25T20:22:35.456Z,5.10
2023-05-25T20:25:02.696Z,5.10
2023-05-25T20:27:29.941Z,5.00
2023-05-25T20:29:57.468Z,5.60
2023-05-25T20:32:24.820Z,4.70
2023-05-25T20:34:52.093Z,5.30
2023-05-25T20:37:19.381Z,5.00
2023-05-25T20:39:46.644Z,5.30
2023-05-25T20:42:14.128Z,5.20
2023-05-25T20:44:41.385Z,5.10
2023-05-25T20:47:08.664Z,5.20
2023-05-25T20:49:36.001Z,5.40
2023-05-25T20:52:03.417Z,5.70
2023-05-25T20:54:30.763Z,5.70
2023-05-25T20:56:58.074Z,5.50
2023-05-25T20:59:25.441Z,5.60
2023-05-25T21:01:52.754Z,5.70
2023-05-25T21:04:20.021Z,6.20
2023-05-25T21:06:47.270Z,5.90
2023-05-25T21:09:14.573Z,5.90
2023-05-25T21:11:41.800Z,6.00
2023-05-25T21:14:09.045Z,6.30
2023-05-25T21:16:36.391Z,6.20
2023-05-25T21:19:03.665Z,5.80
2023-05-25T21:21:33.916Z,6.00
2023-05-25T21:24:01.628Z,5.70
2023-05-25T21:26:29.820Z,6.00
2023-05-25T21:28:57.485Z,5.70
2023-05-25T21:31:25.012Z,5.90
2023-05-25T21:33:53.222Z,6.20
2023-05-25T21:36:20.810Z,5.90
2023-05-25T21:38:48.110Z,5.60
2023-05-25T21:41:15.497Z,6.00
2023-05-25T21:43:42.745Z,6.00
2023-05-25T21:46:10.069Z,5.80
2023-05-25T21:48:37.521Z,5.80
2023-05-25T21:51:05.536Z,6.50
2023-05-25T21:53:32.955Z,6.20
2023-05-25T21:56:00.240Z,6.30
2023-05-25T21:58:27.531Z,6.20
2023-05-25T22:00:54.742Z,6.50
2023-05-25T22:03:22.228Z,6.20
2023-05-25T22:05:49.457Z,6.40
2023-05-25T22:08:16.722Z,6.60
2023-05-25T22:10:43.932Z,6.30
2023-05-25T22:13:11.148Z,6.60
2023-05-25T22:15:38.456Z,6.40
2023-05-25T22:18:06.329Z,6.70
2023-05-25T22:20:33.726Z,6.80
2023-05-25T22:23:01.061Z,6.80
2023-05-25T22:25:28.299Z,6.70
2023-05-25T22:27:56.042Z,7.00
2023-05-25T22:30:23.351Z,7.00
2023-05-25T22:32:50.694Z,7.10
2023-05-25T22:35:17.919Z,6.80
2023-05-25T22:37:45.270Z,7.00
2023-05-25T22:40:12.932Z,6.80
2023-05-25T22:42:40.535Z,6.60
2023-05-25T22:45:08.376Z,6.90
2023-05-25T22:47:35.916Z,7.60
2023-05-25T22:50:03.194Z,6.80
2023-05-25T22:52:30.466Z,7.20
2023-05-25T22:54:57.721Z,7.30
2023-05-25T22:57:25.059Z,7.60
2023-05-25T22:59:52.308Z,7.50
2023-05-25T23:02:19.551Z,7.20
2023-05-25T23:04:46.948Z,7.30
2023-05-25T23:07:14.233Z,7.70
2023-05-25T23:09:41.438Z,7.50
2023-05-25T23:12:08.719Z,7.60
2023-05-25T23:14:36.485Z,7.90
2023-05-25T23:17:03.804Z,7.60
2023-05-25T23:19:31.034Z,8.00
2023-05-25T23:21:58.714Z,7.90
2023-05-25T23:24:25.934Z,7.70
2023-05-25T23:26:53.264Z,8.20
2023-05-25T23:29:20.473Z,8.10
2023-05-25T23:31:47.733Z,8.10
2023-05-25T23:34:15.601Z,8.30
2023-05-25T23:36:42.894Z,7.90
2023-05-25T23:39:10.262Z,7.90
2023-05-25T23:41:37.566Z,8.30
2023-05-25T23:44:04.844Z,8.30
2023-05-25T23:46:32.180Z,8.00
2023-05-25T23:48:59.577Z,7.80
2023-05-25T23:51:30.246Z,8.40
2023-05-25T23:53:59.170Z,8.10
2023-05-25T23:56:28.396Z,8.00
2023-05-25T23:58:57.396Z,7.90
